Time;durP1;ratioP1;P1;durP2;ratioP2;P2;SDS_P1;SDS_P2;PMS_P1;PMS_P2;Temp;Humidity;BMP_temperature;BMP_pressure;BME280_temperature;BME280_humidity;BME280_pressure;Samples;Min_cycle;Max_cycle;Signal;HPM_P1;HPM_P2
2022/11/24 00:00:09;;;;;;;39.13;15.55;;;;;;;;;;5055932;28;20063;-81
2022/11/24 00:02:35;;;;;;;39.85;14.40;;;;;;;;;;5062878;28;20021;-80
2022/11/24 00:05:01;;;;;;;36.03;15.18;;;;;;;;;;5064644;28;20689;-81
2022/11/24 00:07:27;;;;;;;38.15;15.68;;;;;;;;;;5062031;28;20029;-81
2022/11/24 00:09:53;;;;;;;39.25;15.73;;;;;;;;;;5065607;28;20524;-81
2022/11/24 00:12:19;;;;;;;41.20;15.85;;;;;;;;;;5066254;28;20032;-81
2022/11/24 00:14:45;;;;;;;37.28;14.45;;;;;;;;;;5065340;28;20027;-81
2022/11/24 00:17:11;;;;;;;37.08;14.68;;;;;;;;;;5059327;28;20048;-80
2022/11/24 00:19:37;;;;;;;44.47;15.85;;;;;;;;;;5065340;28;20541;-80
2022/11/24 00:22:03;;;;;;;38.45;15.55;;;;;;;;;;5064147;28;20031;-81
2022/11/24 00:24:29;;;;;;;48.85;16.20;;;;;;;;;;5065682;28;20029;-81
2022/11/24 00:26:55;;;;;;;36.88;15.77;;;;;;;;;;5060807;28;20032;-81
2022/11/24 00:29:21;;;;;;;43.05;15.35;;;;;;;;;;5064313;28;20250;-81
2022/11/24 00:31:47;;;;;;;37.92;15.65;;;;;;;;;;5062424;28;20033;-80
2022/11/24 00:34:14;;;;;;;39.17;15.70;;;;;;;;;;5064241;28;20048;-80
2022/11/24 00:36:40;;;;;;;42.10;16.80;;;;;;;;;;5059746;28;20538;-81
2022/11/24 00:39:07;;;;;;;38.83;14.00;;;;;;;;;;5064793;28;20060;-81
2022/11/24 00:41:33;;;;;;;37.97;15.82;;;;;;;;;;5065835;28;20090;-81
2022/11/24 00:43:59;;;;;;;39.15;15.38;;;;;;;;;;5061906;28;20035;-81
2022/11/24 00:46:25;;;;;;;39.03;15.82;;;;;;;;;;5062811;28;20027;-80
2022/11/24 00:48:52;;;;;;;40.78;16.58;;;;;;;;;;5058202;28;20064;-80
2022/11/24 00:51:19;;;;;;;40.80;15.63;;;;;;;;;;5062540;28;20028;-80
2022/11/24 00:53:45;;;;;;;48.20;17.50;;;;;;;;;;5063121;28;20039;-80
2022/11/24 00:56:11;;;;;;;38.80;15.77;;;;;;;;;;5060146;28;20020;-79
2022/11/24 00:58:38;;;;;;;40.70;14.68;;;;;;;;;;5063385;28;20021;-79
2022/11/24 01:01:08;;;;;;;39.53;14.98;;;;;;;;;;5063246;28;20028;-80
2022/11/24 01:03:34;;;;;;;39.40;14.55;;;;;;;;;;5058334;28;20032;-80
2022/11/24 01:06:07;;;;;;;38.78;15.82;;;;;;;;;;5053368;28;20039;-80
2022/11/24 01:08:33;;;;;;;38.47;15.48;;;;;;;;;;5067547;28;20029;-80
2022/11/24 01:11:06;;;;;;;40.55;14.30;;;;;;;;;;5064757;28;20047;-80
2022/11/24 01:13:32;;;;;;;41.95;15.95;;;;;;;;;;5059861;28;20091;-80
2022/11/24 01:15:58;;;;;;;42.30;16.08;;;;;;;;;;5063891;28;20028;-80
2022/11/24 01:18:24;;;;;;;34.92;14.05;;;;;;;;;;5063294;28;20024;-79
2022/11/24 01:20:50;;;;;;;32.55;13.73;;;;;;;;;;5057375;28;20047;-80
2022/11/24 01:23:16;;;;;;;41.13;15.88;;;;;;;;;;5065366;28;20047;-80
2022/11/24 01:25:42;;;;;;;34.13;15.13;;;;;;;;;;5055901;28;20404;-80
2022/11/24 01:28:08;;;;;;;40.70;15.43;;;;;;;;;;5062210;28;20468;-80
2022/11/24 01:30:34;;;;;;;41.60;15.95;;;;;;;;;;5062521;28;20035;-80
2022/11/24 01:33:00;;;;;;;46.72;15.73;;;;;;;;;;5064116;28;20028;-80
2022/11/24 01:35:26;;;;;;;42.42;15.90;;;;;;;;;;5063692;28;20542;-80
2022/11/24 01:37:51;;;;;;;38.53;14.43;;;;;;;;;;5052302;28;20074;-80
2022/11/24 01:40:17;;;;;;;43.47;15.90;;;;;;;;;;5062492;28;20025;-80
2022/11/24 01:42:51;;;;;;;44.08;16.45;;;;;;;;;;5065728;28;20036;-80
2022/11/24 01:45:27;;;;;;;42.00;16.02;;;;;;;;;;5059976;28;20051;-79
2022/11/24 01:47:53;;;;;;;35.35;14.75;;;;;;;;;;5060654;28;20039;-80
2022/11/24 01:50:20;;;;;;;42.58;15.20;;;;;;;;;;5065090;28;20168;-79
2022/11/24 01:52:52;;;;;;;41.92;14.82;;;;;;;;;;5066093;28;20525;-80
2022/11/24 01:55:21;;;;;;;37.00;14.77;;;;;;;;;;5063155;28;20063;-80
2022/11/24 01:57:49;;;;;;;41.10;15.38;;;;;;;;;;5063220;28;20039;-80
2022/11/24 02:00:17;;;;;;;35.38;14.15;;;;;;;;;;5063467;28;20044;-79
2022/11/24 02:02:44;;;;;;;34.88;13.80;;;;;;;;;;5064533;28;20372;-79
2022/11/24 02:05:32;;;;;;;43.75;15.45;;;;;;;;;;5054501;28;20029;-79
2022/11/24 02:08:00;;;;;;;35.97;14.93;;;;;;;;;;5060707;28;20789;-80
2022/11/24 02:10:26;;;;;;;43.90;14.48;;;;;;;;;;5068691;28;20055;-79
2022/11/24 02:12:54;;;;;;;37.03;13.48;;;;;;;;;;5069346;28;20479;-79
2022/11/24 02:15:20;;;;;;;32.22;13.23;;;;;;;;;;5064210;28;20024;-80
2022/11/24 02:17:46;;;;;;;35.78;14.30;;;;;;;;;;5061259;28;20487;-79
2022/11/24 02:20:12;;;;;;;33.95;13.85;;;;;;;;;;5063568;28;20111;-80
2022/11/24 02:22:44;;;;;;;37.25;14.25;;;;;;;;;;5064346;28;20043;-80
2022/11/24 02:25:10;;;;;;;;;;;;;;;;;;5062772;28;20475;-79
2022/11/24 02:27:52;;;;;;;31.08;12.93;;;;;;;;;;5062756;28;19991;-80
2022/11/24 02:30:18;;;;;;;39.33;13.05;;;;;;;;;;5067980;28;20028;-80
2022/11/24 02:32:44;;;;;;;31.50;13.48;;;;;;;;;;5064799;28;20021;-79
2022/11/24 02:35:30;;;;;;;34.13;13.82;;;;;;;;;;5065410;28;20032;-80
2022/11/24 02:37:56;;;;;;;31.65;13.80;;;;;;;;;;5059709;28;20025;-80
2022/11/24 02:40:24;;;;;;;28.45;13.45;;;;;;;;;;5061493;28;20020;-80
2022/11/24 02:42:51;;;;;;;34.53;12.48;;;;;;;;;;5060704;28;20037;-80
2022/11/24 02:45:17;;;;;;;35.85;13.77;;;;;;;;;;5067613;28;20036;-79
2022/11/24 02:47:44;;;;;;;34.88;13.38;;;;;;;;;;5056927;28;20031;-79
2022/11/24 02:50:09;;;;;;;30.17;13.35;;;;;;;;;;5065846;28;20053;-80
2022/11/24 02:52:35;;;;;;;36.63;13.40;;;;;;;;;;5063643;28;20205;-80
2022/11/24 02:55:01;;;;;;;32.08;13.60;;;;;;;;;;5065810;28;20033;-80
2022/11/24 02:57:27;;;;;;;33.65;13.70;;;;;;;;;;5061088;28;20106;-79
2022/11/24 02:59:53;;;;;;;29.17;11.77;;;;;;;;;;5067943;28;20042;-79
2022/11/24 03:02:19;;;;;;;32.13;12.57;;;;;;;;;;5063792;28;20459;-79
2022/11/24 03:04:45;;;;;;;33.15;12.20;;;;;;;;;;5062405;28;20527;-80
2022/11/24 03:07:11;;;;;;;37.95;13.57;;;;;;;;;;5057327;28;20076;-80
2022/11/24 03:09:37;;;;;;;44.05;13.52;;;;;;;;;;5063094;28;20128;-81
2022/11/24 03:12:03;;;;;;;31.55;12.60;;;;;;;;;;5058562;28;20672;-80
2022/11/24 03:14:29;;;;;;;33.38;13.32;;;;;;;;;;5063210;28;20029;-80
2022/11/24 03:16:55;;;;;;;34.38;12.82;;;;;;;;;;5063174;28;20025;-80
2022/11/24 03:19:21;;;;;;;39.63;13.50;;;;;;;;;;5065545;28;20387;-80
2022/11/24 03:21:46;;;;;;;36.38;13.88;;;;;;;;;;5064804;28;20055;-80
2022/11/24 03:24:12;;;;;;;32.83;12.93;;;;;;;;;;5064996;28;20108;-80
2022/11/24 03:26:38;;;;;;;29.98;12.68;;;;;;;;;;5062991;28;20035;-80
2022/11/24 03:29:04;;;;;;;37.92;13.65;;;;;;;;;;5067785;28;20042;-80
2022/11/24 03:31:30;;;;;;;36.72;15.00;;;;;;;;;;5064898;28;20071;-80
2022/11/24 03:33:56;;;;;;;33.15;13.73;;;;;;;;;;5062604;28;20115;-80
2022/11/24 03:36:22;;;;;;;30.40;13.00;;;;;;;;;;5061173;28;20033;-80
2022/11/24 03:38:48;;;;;;;33.88;13.45;;;;;;;;;;5064735;28;20114;-80
2022/11/24 03:41:14;;;;;;;36.70;14.07;;;;;;;;;;5064952;28;20075;-80
2022/11/24 03:43:40;;;;;;;33.33;12.90;;;;;;;;;;5061312;28;20040;-80
2022/11/24 03:46:06;;;;;;;36.05;13.50;;;;;;;;;;5056352;28;20052;-79
2022/11/24 03:48:32;;;;;;;33.95;12.40;;;;;;;;;;5060769;28;20101;-80
2022/11/24 03:50:59;;;;;;;31.67;12.65;;;;;;;;;;5065889;28;20056;-79
2022/11/24 03:53:26;;;;;;;29.27;11.77;;;;;;;;;;5066169;28;20410;-80
2022/11/24 03:55:52;;;;;;;36.85;12.43;;;;;;;;;;5061514;28;20107;-79
2022/11/24 03:58:18;;;;;;;34.90;12.90;;;;;;;;;;5064514;28;20577;-80
2022/11/24 04:00:44;;;;;;;31.98;11.55;;;;;;;;;;5063972;28;20032;-80
2022/11/24 04:03:10;;;;;;;35.35;12.98;;;;;;;;;;5064798;28;20029;-80
2022/11/24 04:05:36;;;;;;;26.70;11.95;;;;;;;;;;5063238;28;20032;-80
2022/11/24 04:08:04;;;;;;;31.15;12.55;;;;;;;;;;5057789;28;20044;-80
2022/11/24 04:10:31;;;;;;;24.73;11.30;;;;;;;;;;5065181;28;20443;-80
2022/11/24 04:12:59;;;;;;;26.77;11.45;;;;;;;;;;5063263;28;20098;-79
2022/11/24 04:15:28;;;;;;;30.88;11.98;;;;;;;;;;5064066;28;20016;-79
2022/11/24 04:17:54;;;;;;;28.33;12.40;;;;;;;;;;5064389;28;20021;-80
2022/11/24 04:20:23;;;;;;;27.63;11.82;;;;;;;;;;5061808;28;20505;-80
2022/11/24 04:22:50;;;;;;;35.83;13.13;;;;;;;;;;5058949;28;20086;-80
2022/11/24 04:25:16;;;;;;;32.95;12.45;;;;;;;;;;5063182;28;20032;-80
2022/11/24 04:27:42;;;;;;;32.15;12.75;;;;;;;;;;5058475;28;20565;-79
2022/11/24 04:30:09;;;;;;;38.03;12.43;;;;;;;;;;5060606;28;20170;-80
2022/11/24 04:32:35;;;;;;;30.35;12.38;;;;;;;;;;5057012;28;20162;-80
2022/11/24 04:35:01;;;;;;;30.15;12.18;;;;;;;;;;5059239;28;20033;-81
2022/11/24 04:37:27;;;;;;;27.92;12.25;;;;;;;;;;5064257;28;20031;-81
2022/11/24 04:39:54;;;;;;;34.58;12.15;;;;;;;;;;5061272;28;20028;-81
2022/11/24 04:42:20;;;;;;;32.78;13.20;;;;;;;;;;5063365;28;20036;-81
2022/11/24 04:44:46;;;;;;;27.35;10.93;;;;;;;;;;5063659;28;20024;-81
2022/11/24 04:47:14;;;;;;;34.80;11.95;;;;;;;;;;5062166;28;20039;-79
2022/11/24 04:49:40;;;;;;;30.35;11.73;;;;;;;;;;5061899;28;20055;-80
2022/11/24 04:52:06;;;;;;;28.88;11.23;;;;;;;;;;5066921;28;20029;-79
2022/11/24 04:54:32;;;;;;;33.45;12.07;;;;;;;;;;5055684;28;20475;-80
2022/11/24 04:56:58;;;;;;;26.05;11.38;;;;;;;;;;5062909;28;20028;-80
2022/11/24 04:59:24;;;;;;;25.33;10.55;;;;;;;;;;5050707;28;20091;-80
2022/11/24 05:01:50;;;;;;;35.67;11.98;;;;;;;;;;5059664;28;20017;-80
2022/11/24 05:04:16;;;;;;;32.78;11.88;;;;;;;;;;5063047;28;20360;-80
2022/11/24 05:06:42;;;;;;;28.70;11.60;;;;;;;;;;5061204;28;20044;-81
2022/11/24 05:09:08;;;;;;;37.60;12.02;;;;;;;;;;5065047;28;20502;-80
2022/11/24 05:11:34;;;;;;;33.65;13.18;;;;;;;;;;5068709;28;20029;-80
2022/11/24 05:14:00;;;;;;;35.17;12.27;;;;;;;;;;5064818;28;20071;-80
2022/11/24 05:16:26;;;;;;;30.08;10.90;;;;;;;;;;5064836;28;20039;-81
2022/11/24 05:18:52;;;;;;;32.10;11.23;;;;;;;;;;5058894;28;20028;-80
2022/11/24 05:21:18;;;;;;;22.67;10.52;;;;;;;;;;5061758;28;20574;-80
2022/11/24 05:23:44;;;;;;;26.45;11.52;;;;;;;;;;5068073;28;20020;-81
2022/11/24 05:26:10;;;;;;;32.17;10.50;;;;;;;;;;5061500;28;20036;-80
2022/11/24 05:28:36;;;;;;;35.45;12.15;;;;;;;;;;5064553;28;20089;-80
2022/11/24 05:31:02;;;;;;;26.48;10.43;;;;;;;;;;5067985;28;20035;-80
2022/11/24 05:33:28;;;;;;;33.10;11.55;;;;;;;;;;5066828;28;20028;-80
2022/11/24 05:35:55;;;;;;;32.30;11.55;;;;;;;;;;5056140;28;20017;-80
2022/11/24 05:38:22;;;;;;;33.35;13.23;;;;;;;;;;5063787;28;20029;-80
2022/11/24 05:40:48;;;;;;;32.25;12.32;;;;;;;;;;5063933;28;20089;-80
2022/11/24 05:43:15;;;;;;;36.03;12.07;;;;;;;;;;5060952;28;20072;-80
2022/11/24 05:45:41;;;;;;;27.25;11.50;;;;;;;;;;5061166;28;20082;-80
2022/11/24 05:48:07;;;;;;;30.48;11.90;;;;;;;;;;5058162;28;20058;-81
2022/11/24 05:50:34;;;;;;;32.92;11.93;;;;;;;;;;5068804;28;20024;-80
2022/11/24 05:53:07;;;;;;;29.63;11.57;;;;;;;;;;5067624;28;20024;-81
2022/11/24 05:55:33;;;;;;;26.25;11.50;;;;;;;;;;5070793;28;20036;-80
2022/11/24 05:58:04;;;;;;;31.90;11.10;;;;;;;;;;5064949;28;20025;-80
2022/11/24 06:00:30;;;;;;;29.38;9.60;;;;;;;;;;5068602;28;20017;-80
2022/11/24 06:02:57;;;;;;;34.60;12.73;;;;;;;;;;5063978;28;20041;-80
2022/11/24 06:05:23;;;;;;;32.88;11.32;;;;;;;;;;5057558;28;20120;-79
2022/11/24 06:07:49;;;;;;;32.53;11.00;;;;;;;;;;5069538;28;20131;-80
2022/11/24 06:10:18;;;;;;;30.80;11.60;;;;;;;;;;5068619;28;20042;-80
2022/11/24 06:12:44;;;;;;;23.80;9.40;;;;;;;;;;5063053;28;20121;-82
2022/11/24 06:15:11;;;;;;;29.13;10.63;;;;;;;;;;5064880;28;20028;-81
2022/11/24 06:17:37;;;;;;;26.55;10.73;;;;;;;;;;5056110;28;20491;-81
2022/11/24 06:20:04;;;;;;;28.42;10.68;;;;;;;;;;5055631;28;20356;-81
2022/11/24 06:22:30;;;;;;;30.48;11.55;;;;;;;;;;5067069;28;20020;-81
2022/11/24 06:24:56;;;;;;;28.85;11.77;;;;;;;;;;5069044;28;20439;-81
2022/11/24 06:27:22;;;;;;;30.30;9.75;;;;;;;;;;5070955;28;20024;-81
2022/11/24 06:29:48;;;;;;;31.58;11.20;;;;;;;;;;5055997;28;20090;-81
2022/11/24 06:32:14;;;;;;;32.80;11.45;;;;;;;;;;5079659;28;20119;-81
2022/11/24 06:34:40;;;;;;;26.75;10.52;;;;;;;;;;5061874;28;20051;-81
2022/11/24 06:37:06;;;;;;;27.23;10.05;;;;;;;;;;5074759;28;20032;-81
2022/11/24 06:39:32;;;;;;;27.85;11.32;;;;;;;;;;5065009;28;20032;-80
2022/11/24 06:41:57;;;;;;;32.70;11.63;;;;;;;;;;5070401;28;20029;-80
2022/11/24 06:44:24;;;;;;;31.13;10.73;;;;;;;;;;5062874;28;20017;-80
2022/11/24 06:46:50;;;;;;;38.65;12.57;;;;;;;;;;5063031;28;20078;-82
2022/11/24 06:49:16;;;;;;;25.60;10.55;;;;;;;;;;5057145;28;20512;-81
2022/11/24 06:51:42;;;;;;;24.08;10.50;;;;;;;;;;5068224;28;20056;-81
2022/11/24 06:54:08;;;;;;;30.77;10.65;;;;;;;;;;5058815;28;20432;-81
2022/11/24 06:56:34;;;;;;;34.83;10.73;;;;;;;;;;5062088;28;20040;-81
2022/11/24 06:59:00;;;;;;;27.02;9.82;;;;;;;;;;5069243;28;20036;-81
2022/11/24 07:01:27;;;;;;;25.50;9.93;;;;;;;;;;5063188;28;20619;-80
2022/11/24 07:03:54;;;;;;;29.30;9.65;;;;;;;;;;5075716;28;20024;-80
2022/11/24 07:06:21;;;;;;;30.15;10.80;;;;;;;;;;5068297;28;20032;-80
2022/11/24 07:08:47;;;;;;;26.30;11.02;;;;;;;;;;5067406;28;20077;-80
2022/11/24 07:11:14;;;;;;;26.08;9.93;;;;;;;;;;5066161;28;20036;-80
2022/11/24 07:13:41;;;;;;;27.60;9.50;;;;;;;;;;5066988;28;20033;-81
2022/11/24 07:16:17;;;;;;;29.60;10.70;;;;;;;;;;5061143;28;20025;-80
2022/11/24 07:18:44;;;;;;;27.85;10.27;;;;;;;;;;5055909;28;20020;-80
2022/11/24 07:21:10;;;;;;;31.50;11.40;;;;;;;;;;5067162;28;20024;-80
2022/11/24 07:23:36;;;;;;;29.88;10.10;;;;;;;;;;5070009;28;20483;-80
2022/11/24 07:26:03;;;;;;;36.05;11.45;;;;;;;;;;5061371;28;20058;-77
2022/11/24 07:28:29;;;;;;;25.27;9.98;;;;;;;;;;5068336;28;20379;-86
2022/11/24 07:30:55;;;;;;;29.88;11.02;;;;;;;;;;5066486;28;20479;-85
2022/11/24 07:33:24;;;;;;;22.55;9.25;;;;;;;;;;5067428;28;20115;-82
2022/11/24 07:35:50;;;;;;;28.75;10.35;;;;;;;;;;5063100;28;20028;-82
2022/11/24 07:38:16;;;;;;;28.95;10.50;;;;;;;;;;5058712;28;20035;-84
2022/11/24 07:40:42;;;;;;;32.15;11.82;;;;;;;;;;5065958;28;20357;-85
2022/11/24 07:43:08;;;;;;;25.17;9.20;;;;;;;;;;5061791;28;20075;-84
2022/11/24 07:45:34;;;;;;;31.98;11.23;;;;;;;;;;5067639;28;20142;-83
2022/11/24 07:48:00;;;;;;;33.92;11.35;;;;;;;;;;5060319;28;20922;-81
2022/11/24 07:50:26;;;;;;;33.20;11.40;;;;;;;;;;5066698;28;20485;-79
2022/11/24 07:52:52;;;;;;;36.50;10.43;;;;;;;;;;5067134;28;20068;-80
2022/11/24 07:55:18;;;;;;;22.92;10.13;;;;;;;;;;5067051;28;20106;-81
2022/11/24 07:57:44;;;;;;;34.65;10.07;;;;;;;;;;5063858;28;20063;-81
2022/11/24 08:00:10;;;;;;;30.58;10.43;;;;;;;;;;5058689;28;20653;-82
2022/11/24 08:02:36;;;;;;;26.23;9.55;;;;;;;;;;5063269;28;20024;-80
2022/11/24 08:05:02;;;;;;;25.77;9.80;;;;;;;;;;5067893;28;20119;-77
2022/11/24 08:07:28;;;;;;;26.98;10.45;;;;;;;;;;5059339;28;20178;-76
2022/11/24 08:09:54;;;;;;;25.60;9.43;;;;;;;;;;5066531;28;20025;-77
2022/11/24 08:12:22;;;;;;;23.63;9.82;;;;;;;;;;5063795;28;20117;-78
2022/11/24 08:14:49;;;;;;;24.30;10.20;;;;;;;;;;5067643;28;20020;-82
2022/11/24 08:17:15;;;;;;;28.13;10.75;;;;;;;;;;5065020;28;20032;-80
2022/11/24 08:19:41;;;;;;;25.17;10.52;;;;;;;;;;5061482;28;20024;-81
2022/11/24 08:22:07;;;;;;;24.27;9.55;;;;;;;;;;5067869;28;20040;-80
2022/11/24 08:24:33;;;;;;;22.17;9.57;;;;;;;;;;5068200;28;20059;-80
2022/11/24 08:26:59;;;;;;;33.00;10.05;;;;;;;;;;5068965;28;20028;-80
2022/11/24 08:29:28;;;;;;;32.58;10.98;;;;;;;;;;5066042;28;20088;-79
2022/11/24 08:31:56;;;;;;;24.60;10.45;;;;;;;;;;5068228;28;20031;-80
2022/11/24 08:34:22;;;;;;;26.85;10.48;;;;;;;;;;5066243;28;20025;-77
2022/11/24 08:36:48;;;;;;;31.23;11.48;;;;;;;;;;5067871;28;20048;-78
2022/11/24 08:39:14;;;;;;;23.92;10.55;;;;;;;;;;5059392;28;20049;-78
2022/11/24 08:41:39;;;;;;;34.28;11.32;;;;;;;;;;5067612;28;20020;-78
2022/11/24 08:44:07;;;;;;;19.80;9.63;;;;;;;;;;5068494;28;20021;-78
2022/11/24 08:46:33;;;;;;;25.98;9.32;;;;;;;;;;5065156;28;20195;-78
2022/11/24 08:48:58;;;;;;;30.27;10.77;;;;;;;;;;5066799;28;20048;-78
2022/11/24 08:51:25;;;;;;;26.05;10.73;;;;;;;;;;5068128;28;20112;-78
2022/11/24 08:53:57;;;;;;;24.23;9.90;;;;;;;;;;5067207;28;20048;-78
2022/11/24 08:56:23;;;;;;;32.05;10.93;;;;;;;;;;5061179;28;20439;-78
2022/11/24 08:58:49;;;;;;;28.67;11.13;;;;;;;;;;5066666;28;20029;-78
2022/11/24 09:01:16;;;;;;;26.00;11.38;;;;;;;;;;5065232;28;20020;-78
2022/11/24 09:03:43;;;;;;;30.15;10.70;;;;;;;;;;5064734;28;20048;-77
2022/11/24 09:06:09;;;;;;;33.03;11.30;;;;;;;;;;5067630;28;20025;-77
2022/11/24 09:08:36;;;;;;;25.85;10.80;;;;;;;;;;5065166;28;20024;-77
2022/11/24 09:11:03;;;;;;;30.85;11.27;;;;;;;;;;5068080;28;20028;-77
2022/11/24 09:13:29;;;;;;;29.63;12.65;;;;;;;;;;5059730;28;20479;-77
2022/11/24 09:15:55;;;;;;;25.10;11.27;;;;;;;;;;5068197;28;20111;-77
2022/11/24 09:18:21;;;;;;;25.67;10.43;;;;;;;;;;5066656;28;20035;-77
2022/11/24 09:20:47;;;;;;;30.00;11.18;;;;;;;;;;5062120;28;20060;-77
2022/11/24 09:23:13;;;;;;;29.60;11.68;;;;;;;;;;5066425;28;20497;-77
2022/11/24 09:25:39;;;;;;;22.40;9.70;;;;;;;;;;5061462;28;20086;-78
2022/11/24 09:28:05;;;;;;;26.23;10.50;;;;;;;;;;5067595;28;20395;-78
2022/11/24 09:30:31;;;;;;;29.02;10.73;;;;;;;;;;5056357;28;20032;-76
2022/11/24 09:32:57;;;;;;;29.77;10.98;;;;;;;;;;5058818;28;20028;-77
2022/11/24 09:35:23;;;;;;;23.38;10.98;;;;;;;;;;5057383;28;20028;-76
2022/11/24 09:37:50;;;;;;;26.45;11.45;;;;;;;;;;5062186;28;20020;-76
2022/11/24 09:40:16;;;;;;;26.17;12.10;;;;;;;;;;5062313;28;20024;-77
2022/11/24 09:42:55;;;;;;;25.92;11.38;;;;;;;;;;5065233;28;20483;-77
2022/11/24 09:45:27;;;;;;;28.38;11.10;;;;;;;;;;5060239;28;20032;-77
2022/11/24 09:47:58;;;;;;;31.90;12.07;;;;;;;;;;5065364;28;20033;-76
2022/11/24 09:50:35;;;;;;;30.20;10.93;;;;;;;;;;5061763;28;20517;-77
2022/11/24 09:53:19;;;;;;;28.02;11.63;;;;;;;;;;5058514;28;20472;-77
2022/11/24 09:55:49;;;;;;;27.17;12.43;;;;;;;;;;5063338;28;20057;-77
2022/11/24 09:58:27;;;;;;;27.33;12.25;;;;;;;;;;5058760;28;20060;-77
2022/11/24 10:00:54;;;;;;;29.58;12.02;;;;;;;;;;5065176;28;20052;-77
2022/11/24 10:03:35;;;;;;;35.17;12.07;;;;;;;;;;5059700;28;20044;-76
2022/11/24 10:06:04;;;;;;;25.95;10.43;;;;;;;;;;5062479;28;20032;-77
2022/11/24 10:08:37;;;;;;;26.45;11.20;;;;;;;;;;5065272;28;20071;-76
2022/11/24 10:11:14;;;;;;;29.30;11.82;;;;;;;;;;5064897;28;20024;-76
2022/11/24 10:13:59;;;;;;;28.80;11.18;;;;;;;;;;5064689;28;20029;-76
2022/11/24 10:16:35;;;;;;;27.30;11.88;;;;;;;;;;5067350;28;20082;-76
2022/11/24 10:19:11;;;;;;;30.42;11.15;;;;;;;;;;5062214;28;20499;-76
2022/11/24 10:21:47;;;;;;;29.42;12.00;;;;;;;;;;5058163;28;20021;-76
2022/11/24 10:24:16;;;;;;;24.65;10.88;;;;;;;;;;5060419;28;20029;-76
2022/11/24 10:26:50;;;;;;;24.70;10.50;;;;;;;;;;5057331;28;20565;-77
2022/11/24 10:29:30;;;;;;;24.35;10.45;;;;;;;;;;5067420;28;20032;-76
2022/11/24 10:31:56;;;;;;;25.33;11.38;;;;;;;;;;5065388;28;20475;-76
2022/11/24 10:34:34;;;;;;;27.73;12.05;;;;;;;;;;5056279;28;20103;-76
2022/11/24 10:37:19;;;;;;;24.42;11.30;;;;;;;;;;5063571;28;20688;-76
2022/11/24 10:39:49;;;;;;;31.13;11.65;;;;;;;;;;5066742;28;20035;-76
2022/11/24 10:42:23;;;;;;;26.95;11.48;;;;;;;;;;5070316;28;20038;-77
2022/11/24 10:44:58;;;;;;;23.75;11.55;;;;;;;;;;5066894;28;20566;-77
2022/11/24 10:47:24;;;;;;;24.00;10.98;;;;;;;;;;5064840;28;20024;-77
2022/11/24 10:50:10;;;;;;;32.65;11.95;;;;;;;;;;5060191;28;20514;-77
2022/11/24 10:52:40;;;;;;;29.73;12.25;;;;;;;;;;5064638;28;20044;-77
2022/11/24 10:55:06;;;;;;;29.20;12.02;;;;;;;;;;5066517;28;20027;-77
2022/11/24 10:57:33;;;;;;;29.65;12.57;;;;;;;;;;5063932;28;20081;-77
2022/11/24 10:59:59;;;;;;;28.23;12.57;;;;;;;;;;5068948;28;20479;-77
2022/11/24 11:02:33;;;;;;;30.38;12.00;;;;;;;;;;5069170;28;20029;-77
2022/11/24 11:05:19;;;;;;;33.35;12.88;;;;;;;;;;5065117;28;20540;-77
2022/11/24 11:07:45;;;;;;;30.42;12.95;;;;;;;;;;5057915;28;20025;-77
2022/11/24 11:10:19;;;;;;;27.02;11.27;;;;;;;;;;5066673;28;20052;-77
2022/11/24 11:12:45;;;;;;;29.83;11.65;;;;;;;;;;5058676;28;20036;-77
2022/11/24 11:15:27;;;;;;;30.17;12.30;;;;;;;;;;5064451;28;20044;-77
2022/11/24 11:17:56;;;;;;;32.90;12.95;;;;;;;;;;5068431;28;20439;-77
2022/11/24 11:20:25;;;;;;;28.92;12.48;;;;;;;;;;5066469;28;20044;-77
2022/11/24 11:22:55;;;;;;;27.67;11.70;;;;;;;;;;5061897;28;20016;-78
2022/11/24 11:25:30;;;;;;;30.13;13.23;;;;;;;;;;5059464;28;20094;-77
2022/11/24 11:28:10;;;;;;;38.72;12.93;;;;;;;;;;5065742;28;20039;-76
2022/11/24 11:30:36;;;;;;;25.60;11.90;;;;;;;;;;5062453;28;20083;-76
2022/11/24 11:33:02;;;;;;;24.60;12.15;;;;;;;;;;5061709;28;20036;-76
2022/11/24 11:35:32;;;;;;;25.40;11.60;;;;;;;;;;5062595;28;20028;-76
2022/11/24 11:38:02;;;;;;;28.27;12.50;;;;;;;;;;5063979;28;20112;-75
2022/11/24 11:40:30;;;;;;;25.73;12.30;;;;;;;;;;5065884;28;20028;-76
2022/11/24 11:42:59;;;;;;;24.55;10.48;;;;;;;;;;5066488;28;20120;-76
2022/11/24 11:45:33;;;;;;;30.40;11.75;;;;;;;;;;5062112;28;20028;-76
2022/11/24 11:48:02;;;;;;;26.35;10.98;;;;;;;;;;5065361;28;20029;-76
2022/11/24 11:50:46;;;;;;;28.40;10.98;;;;;;;;;;5067505;28;20043;-76
2022/11/24 11:53:22;;;;;;;30.90;11.82;;;;;;;;;;5063001;28;20125;-76
2022/11/24 11:55:57;;;;;;;25.48;11.75;;;;;;;;;;5065176;28;20021;-77
2022/11/24 11:58:33;;;;;;;26.75;11.25;;;;;;;;;;5067995;28;20189;-79
2022/11/24 12:01:17;;;;;;;25.67;11.65;;;;;;;;;;5065476;28;20642;-79
2022/11/24 12:03:50;;;;;;;23.30;10.65;;;;;;;;;;5063118;28;20032;-79
2022/11/24 12:06:23;;;;;;;29.40;13.00;;;;;;;;;;5069324;28;20155;-79
2022/11/24 12:08:53;;;;;;;24.08;11.93;;;;;;;;;;5069495;28;20028;-79
2022/11/24 12:11:29;;;;;;;29.13;12.35;;;;;;;;;;5068654;28;20566;-79
2022/11/24 12:14:07;;;;;;;24.17;12.07;;;;;;;;;;5068398;28;20048;-79
2022/11/24 12:16:44;;;;;;;21.50;10.50;;;;;;;;;;5066935;28;20039;-80
2022/11/24 12:19:10;;;;;;;26.45;12.15;;;;;;;;;;5069094;28;20025;-80
2022/11/24 12:21:54;;;;;;;30.33;12.15;;;;;;;;;;5066486;28;20039;-79
2022/11/24 12:24:29;;;;;;;22.48;10.90;;;;;;;;;;5068352;28;20225;-79
2022/11/24 12:27:02;;;;;;;27.25;10.43;;;;;;;;;;5066858;28;20028;-80
2022/11/24 12:29:28;;;;;;;28.45;11.90;;;;;;;;;;5065194;28;20708;-80
2022/11/24 12:32:14;;;;;;;29.33;11.25;;;;;;;;;;5067504;28;20062;-77
2022/11/24 12:35:03;;;;;;;30.20;11.65;;;;;;;;;;5066002;28;20043;-76
2022/11/24 12:37:50;;;;;;;25.30;11.52;;;;;;;;;;5064884;28;20692;-77
2022/11/24 12:40:36;;;;;;;28.73;13.13;;;;;;;;;;5061976;28;20496;-77
2022/11/24 12:43:20;;;;;;;26.98;11.80;;;;;;;;;;5057352;28;20060;-78
2022/11/24 12:45:46;;;;;;;29.75;11.93;;;;;;;;;;5060031;28;20028;-75
2022/11/24 12:48:22;;;;;;;24.50;10.85;;;;;;;;;;5063318;28;20069;-85
2022/11/24 12:50:49;;;;;;;32.85;12.48;;;;;;;;;;5067304;28;20024;-82
2022/11/24 12:53:18;;;;;;;29.75;12.82;;;;;;;;;;5054288;28;20123;-78
2022/11/24 12:55:44;;;;;;;24.90;11.07;;;;;;;;;;5066346;28;20031;-77
2022/11/24 12:58:16;;;;;;;28.17;11.48;;;;;;;;;;5065867;28;20404;-80
2022/11/24 13:01:04;;;;;;;27.92;12.07;;;;;;;;;;5060104;28;20255;-75
2022/11/24 13:03:42;;;;;;;22.92;11.73;;;;;;;;;;5066266;28;20044;-76
2022/11/24 13:06:14;;;;;;;27.42;12.55;;;;;;;;;;5066864;28;20063;-75
2022/11/24 13:08:40;;;;;;;27.75;12.30;;;;;;;;;;5068303;28;20035;-75
2022/11/24 13:11:25;;;;;;;25.35;12.43;;;;;;;;;;5065825;28;20039;-75
2022/11/24 13:14:06;;;;;;;27.17;12.45;;;;;;;;;;5061282;28;20035;-74
2022/11/24 13:16:32;;;;;;;23.63;11.68;;;;;;;;;;5058561;28;20032;-74
2022/11/24 13:19:00;;;;;;;27.80;11.98;;;;;;;;;;5062236;28;20025;-76
2022/11/24 13:21:31;;;;;;;26.48;11.55;;;;;;;;;;5064183;28;20025;-75
2022/11/24 13:24:05;;;;;;;25.92;12.02;;;;;;;;;;5064604;28;20020;-75
2022/11/24 13:26:44;;;;;;;25.05;10.93;;;;;;;;;;5059054;28;20611;-77
2022/11/24 13:29:28;;;;;;;30.48;11.93;;;;;;;;;;5056502;28;20057;-75
2022/11/24 13:31:55;;;;;;;28.52;11.20;;;;;;;;;;5059482;28;20037;-77
2022/11/24 13:34:39;;;;;;;28.85;11.95;;;;;;;;;;5061010;28;20033;-75
2022/11/24 13:37:24;;;;;;;24.95;11.07;;;;;;;;;;5058634;28;20028;-76
2022/11/24 13:39:57;;;;;;;26.85;11.43;;;;;;;;;;5063532;28;20967;-77
2022/11/24 13:42:24;;;;;;;24.90;11.98;;;;;;;;;;5064714;28;20086;-78
2022/11/24 13:44:51;;;;;;;27.48;12.40;;;;;;;;;;5065032;28;20457;-80
2022/11/24 13:47:33;;;;;;;27.20;11.35;;;;;;;;;;5058691;28;20059;-80
2022/11/24 13:50:03;;;;;;;25.23;12.07;;;;;;;;;;5053710;28;20204;-80
2022/11/24 13:52:38;;;;;;;28.88;12.65;;;;;;;;;;5064516;28;20041;-80
2022/11/24 13:55:19;;;;;;;29.13;11.75;;;;;;;;;;5067076;28;20025;-80
2022/11/24 13:57:52;;;;;;;26.98;10.50;;;;;;;;;;5060595;28;20352;-80
2022/11/24 14:00:29;;;;;;;25.40;11.77;;;;;;;;;;5067278;28;20033;-81
2022/11/24 14:03:14;;;;;;;25.27;11.73;;;;;;;;;;5066059;28;20395;-80
2022/11/24 14:05:45;;;;;;;25.02;11.70;;;;;;;;;;5063530;28;20044;-81
2022/11/24 14:08:16;;;;;;;23.27;10.98;;;;;;;;;;5069213;28;20035;-81
2022/11/24 14:10:42;;;;;;;25.02;11.25;;;;;;;;;;5066150;28;20035;-80
2022/11/24 14:13:24;;;;;;;27.95;12.00;;;;;;;;;;5066218;28;20035;-79
2022/11/24 14:16:08;;;;;;;22.02;10.73;;;;;;;;;;5063042;28;20028;-81
2022/11/24 14:18:34;;;;;;;26.90;11.15;;;;;;;;;;5064714;28;20081;-81
2022/11/24 14:21:17;;;;;;;26.30;11.07;;;;;;;;;;5063343;28;20021;-80
2022/11/24 14:24:03;;;;;;;26.10;11.88;;;;;;;;;;5065800;28;20063;-76
2022/11/24 14:26:34;;;;;;;26.55;11.40;;;;;;;;;;5063276;28;20506;-76
2022/11/24 14:29:12;;;;;;;27.58;12.18;;;;;;;;;;5071658;28;20368;-76